createdAt,value
2022-11-11T00:00:43.094Z,67.22
2022-11-11T00:03:30.188Z,66.68
2022-11-11T00:06:17.276Z,67.03
2022-11-11T00:09:06.077Z,65.00
2022-11-11T00:11:52.472Z,70.03
2022-11-11T00:14:42.021Z,62.97
2022-11-11T00:17:47.056Z,65.10
2022-11-11T00:20:55.170Z,60.42
2022-11-11T00:24:00.117Z,64.93
2022-11-11T00:26:46.791Z,56.92
2022-11-11T00:29:33.380Z,55.83
2022-11-11T00:32:35.792Z,69.45
2022-11-11T00:35:41.601Z,59.50
2022-11-11T00:38:49.744Z,74.97
2022-11-11T00:41:36.524Z,70.10
2022-11-11T00:44:23.072Z,62.28
2022-11-11T00:47:28.757Z,70.50
2022-11-11T00:50:44.789Z,64.47
2022-11-11T00:53:36.847Z,66.65
2022-11-11T00:56:27.103Z,70.45
2022-11-11T00:59:20.039Z,64.57
2022-11-11T01:02:09.642Z,62.33
2022-11-11T01:04:56.858Z,59.85
2022-11-11T01:07:43.355Z,64.97
2022-11-11T01:10:38.744Z,55.70
2022-11-11T01:13:33.409Z,54.90
2022-11-11T01:16:25.941Z,52.70
2022-11-11T01:19:15.221Z,57.20
2022-11-11T01:22:07.996Z,53.00
2022-11-11T01:24:55.730Z,50.45
2022-11-11T01:27:42.373Z,44.88
2022-11-11T01:30:31.797Z,43.00
2022-11-11T01:33:18.179Z,47.83
2022-11-11T01:36:11.675Z,42.08
2022-11-11T01:38:59.646Z,46.67
2022-11-11T01:41:46.349Z,46.50
2022-11-11T01:44:46.818Z,39.22
2022-11-11T01:48:21.467Z,38.05
2022-11-11T01:51:00.201Z,36.60
2022-11-11T01:53:49.983Z,39.13
2022-11-11T01:56:58.564Z,32.85
2022-11-11T02:00:28.768Z,36.45
2022-11-11T02:03:20.447Z,32.13
2022-11-11T02:06:08.111Z,29.58
2022-11-11T02:08:56.889Z,31.65
2022-11-11T02:12:02.619Z,33.88
2022-11-11T02:15:16.502Z,28.40
2022-11-11T02:18:06.351Z,31.10
2022-11-11T02:20:55.116Z,28.30
2022-11-11T02:24:04.239Z,31.30
2022-11-11T02:26:55.500Z,28.73
2022-11-11T02:29:52.595Z,30.88
2022-11-11T02:32:39.370Z,30.95
2022-11-11T02:35:33.750Z,25.88
2022-11-11T02:38:20.365Z,29.40
2022-11-11T02:41:25.329Z,26.42
2022-11-11T02:44:11.870Z,27.50
2022-11-11T02:46:58.545Z,29.02
2022-11-11T02:49:47.465Z,25.52
2022-11-11T02:52:37.019Z,26.35
2022-11-11T02:55:23.561Z,19.23
2022-11-11T02:58:14.931Z,22.25
2022-11-11T03:01:02.131Z,26.98
2022-11-11T03:03:53.059Z,19.27
2022-11-11T03:06:40.089Z,24.65
2022-11-11T03:09:29.023Z,23.50
2022-11-11T03:12:16.296Z,22.83
2022-11-11T03:15:03.451Z,22.23
2022-11-11T03:17:52.556Z,22.90
2022-11-11T03:22:07.615Z,22.17
2022-11-11T03:24:20.166Z,32.60
2022-11-11T03:27:06.580Z,21.88
2022-11-11T03:29:53.174Z,18.15
2022-11-11T03:32:41.353Z,22.02
2022-11-11T03:35:29.318Z,25.17
2022-11-11T03:38:24.902Z,21.85
2022-11-11T03:41:11.069Z,27.85
2022-11-11T03:43:58.487Z,18.33
2022-11-11T03:46:47.431Z,24.50
2022-11-11T03:49:33.757Z,20.55
2022-11-11T03:52:23.293Z,21.30
2022-11-11T03:55:11.282Z,23.17
2022-11-11T03:58:00.936Z,24.52
2022-11-11T04:00:47.220Z,23.48
2022-11-11T04:03:52.131Z,21.52
2022-11-11T04:07:00.750Z,17.23
2022-11-11T04:10:06.628Z,18.65
2022-11-11T04:13:15.820Z,18.00
2022-11-11T04:16:08.703Z,16.67
2022-11-11T04:19:13.739Z,20.13
2022-11-11T04:22:05.905Z,13.25
2022-11-11T04:25:11.619Z,20.73
2022-11-11T04:28:25.333Z,18.70
2022-11-11T04:31:12.620Z,17.50
2022-11-11T04:33:59.403Z,14.68
2022-11-11T04:36:46.052Z,21.58
2022-11-11T04:39:51.559Z,15.52
2022-11-11T04:42:40.705Z,15.88
2022-11-11T04:45:31.574Z,15.40
2022-11-11T04:48:18.514Z,22.38
2022-11-11T04:51:05.785Z,18.92
2022-11-11T04:53:52.036Z,30.08
2022-11-11T04:56:47.977Z,18.50
2022-11-11T04:59:34.582Z,29.48
2022-11-11T05:02:39.422Z,14.95
2022-11-11T05:05:58.426Z,14.40
2022-11-11T05:09:13.600Z,21.65
2022-11-11T05:12:06.158Z,22.52
2022-11-11T05:15:17.790Z,25.45
2022-11-11T05:18:30.459Z,19.98
2022-11-11T05:21:23.285Z,21.65
2022-11-11T05:24:39.629Z,22.23
2022-11-11T05:28:42.527Z,19.73
2022-11-11T05:31:28.607Z,19.67
2022-11-11T05:34:17.122Z,19.35
2022-11-11T05:37:03.632Z,15.55
2022-11-11T05:40:44.753Z,19.17
2022-11-11T05:43:44.371Z,19.60
2022-11-11T05:46:31.515Z,14.98
2022-11-11T05:49:18.243Z,20.23
2022-11-11T05:52:05.706Z,17.15
2022-11-11T05:54:52.206Z,14.95
2022-11-11T05:57:51.511Z,15.52
2022-11-11T06:00:42.866Z,22.20
2022-11-11T06:03:32.340Z,15.30
2022-11-11T06:06:19.040Z,18.83
2022-11-11T06:09:05.902Z,16.30
2022-11-11T06:11:52.318Z,14.07
2022-11-11T06:14:43.176Z,15.63
2022-11-11T06:17:33.398Z,20.83
2022-11-11T06:20:19.599Z,14.05
2022-11-11T06:23:06.422Z,13.27
2022-11-11T06:26:11.886Z,17.73
2022-11-11T06:29:01.531Z,22.00
2022-11-11T06:31:47.503Z,15.98
2022-11-11T06:34:36.901Z,17.65
2022-11-11T06:37:26.213Z,16.63
2022-11-11T06:40:17.475Z,13.38
2022-11-11T06:43:06.745Z,11.93
2022-11-11T06:45:54.589Z,16.27
2022-11-11T06:48:43.833Z,15.45
2022-11-11T06:51:30.375Z,20.58
2022-11-11T06:54:17.274Z,16.15
2022-11-11T06:57:09.226Z,18.40
2022-11-11T06:59:55.580Z,15.52
2022-11-11T07:02:42.186Z,25.00
2022-11-11T07:05:29.998Z,12.02
2022-11-11T07:08:18.825Z,18.38
2022-11-11T07:11:14.013Z,25.48
2022-11-11T07:14:11.547Z,17.50
2022-11-11T07:17:05.942Z,14.40
2022-11-11T07:19:53.311Z,14.25
2022-11-11T07:22:43.999Z,13.85
2022-11-11T07:25:30.537Z,15.63
2022-11-11T07:28:17.575Z,17.60
2022-11-11T07:31:04.521Z,9.00
2022-11-11T07:33:50.786Z,19.40
2022-11-11T07:36:38.691Z,11.05
2022-11-11T07:39:28.105Z,12.32
2022-11-11T07:42:30.475Z,11.27
2022-11-11T07:45:17.903Z,14.10
2022-11-11T07:48:06.968Z,16.40
2022-11-11T07:50:57.135Z,21.48
2022-11-11T07:53:49.333Z,10.85
2022-11-11T07:56:36.466Z,18.67
2022-11-11T07:59:34.264Z,18.42
2022-11-11T08:02:20.588Z,14.85
2022-11-11T08:05:18.623Z,14.57
2022-11-11T08:08:12.040Z,17.13
2022-11-11T08:10:58.197Z,16.48
2022-11-11T08:13:44.550Z,14.68
2022-11-11T08:16:36.932Z,19.35
2022-11-11T08:19:31.018Z,15.40
2022-11-11T08:22:19.811Z,17.88
2022-11-11T08:25:14.273Z,18.20
2022-11-11T08:28:04.514Z,16.55
2022-11-11T08:30:51.587Z,20.05
2022-11-11T08:33:37.968Z,19.02
2022-11-11T08:36:25.601Z,17.83
2022-11-11T08:39:12.350Z,25.58
2022-11-11T08:41:58.955Z,17.33
2022-11-11T08:44:45.436Z,18.02
2022-11-11T08:47:34.483Z,15.27
2022-11-11T08:50:20.999Z,22.83
2022-11-11T08:53:08.909Z,14.75
2022-11-11T08:55:55.706Z,17.98
2022-11-11T08:58:42.698Z,15.27
2022-11-11T09:01:33.036Z,14.15
2022-11-11T09:07:26.939Z,17.65
2022-11-11T09:10:13.551Z,15.63
2022-11-11T09:13:02.445Z,12.23
2022-11-11T09:15:48.599Z,10.05
2022-11-11T09:18:36.369Z,18.20
2022-11-11T09:21:24.307Z,15.75
2022-11-11T09:24:10.825Z,13.40
2022-11-11T09:27:03.340Z,15.98
2022-11-11T09:29:50.227Z,14.60
2022-11-11T09:32:37.153Z,11.23
2022-11-11T09:35:23.770Z,9.35
2022-11-11T09:38:10.119Z,12.57
2022-11-11T09:41:17.283Z,12.20
2022-11-11T09:44:04.302Z,17.15
2022-11-11T09:47:18.013Z,10.27
2022-11-11T09:50:15.573Z,11.98
2022-11-11T09:53:12.623Z,10.02
2022-11-11T09:56:13.469Z,9.23
2022-11-11T09:59:19.517Z,10.32
2022-11-11T10:02:19.879Z,7.65
2022-11-11T10:05:13.102Z,12.00
2022-11-11T10:08:24.833Z,8.55
2022-11-11T10:11:47.363Z,9.00
2022-11-11T10:14:38.290Z,12.00
2022-11-11T10:17:38.996Z,8.95
2022-11-11T10:20:32.019Z,13.15
2022-11-11T10:23:30.814Z,10.88
2022-11-11T10:26:21.433Z,8.27
2022-11-11T10:32:19.753Z,12.25
2022-11-11T10:35:18.054Z,7.00
2022-11-11T10:38:12.341Z,12.43
2022-11-11T10:41:06.285Z,10.10
2022-11-11T10:43:56.219Z,10.10
2022-11-11T10:46:49.824Z,9.35
2022-11-11T10:49:45.130Z,13.20
2022-11-11T10:53:21.840Z,15.02
2022-11-11T10:56:31.782Z,9.23
2022-11-11T10:59:56.878Z,14.02
2022-11-11T11:03:12.001Z,14.20
2022-11-11T11:06:09.064Z,10.48
2022-11-11T11:09:01.223Z,12.13
2022-11-11T11:11:56.096Z,12.65
2022-11-11T11:14:44.833Z,17.58
2022-11-11T11:17:38.017Z,11.05
2022-11-11T11:20:24.895Z,18.00
2022-11-11T11:23:11.234Z,15.90
2022-11-11T11:25:58.143Z,10.48
2022-11-11T11:28:59.193Z,10.82
2022-11-11T11:31:52.471Z,9.30
2022-11-11T11:34:59.514Z,12.25
2022-11-11T11:37:50.802Z,13.27
2022-11-11T11:40:56.607Z,16.80
2022-11-11T11:43:43.737Z,13.57
2022-11-11T11:46:39.184Z,11.98
2022-11-11T11:49:42.193Z,12.65
2022-11-11T11:52:51.914Z,12.47
2022-11-11T11:55:56.252Z,19.67
2022-11-11T11:59:17.833Z,16.75
2022-11-11T12:02:39.169Z,17.88
2022-11-11T12:06:06.574Z,11.32
2022-11-11T12:09:29.612Z,17.10
2022-11-11T12:12:48.824Z,17.08
2022-11-11T12:15:42.236Z,15.27
2022-11-11T12:18:39.611Z,11.25
2022-11-11T12:21:40.236Z,23.67
2022-11-11T12:25:07.487Z,18.75
2022-11-11T12:28:15.526Z,16.88
2022-11-11T12:31:37.437Z,19.98
2022-11-11T12:37:43.594Z,26.27
2022-11-11T12:40:57.940Z,20.60
2022-11-11T12:44:07.295Z,19.55
2022-11-11T12:47:30.076Z,18.70
2022-11-11T12:50:29.111Z,18.30
2022-11-11T12:53:54.901Z,17.73
2022-11-11T12:57:02.311Z,11.77
2022-11-11T13:00:11.991Z,17.92
2022-11-11T13:03:36.739Z,23.17
2022-11-11T13:06:41.017Z,21.15
2022-11-11T13:12:38.586Z,14.85
2022-11-11T13:15:26.746Z,14.10
2022-11-11T13:18:23.330Z,17.77
2022-11-11T13:21:24.196Z,17.70
2022-11-11T13:24:16.438Z,15.73
2022-11-11T13:27:37.513Z,22.88
2022-11-11T13:31:00.308Z,13.82
2022-11-11T13:33:52.499Z,25.98
2022-11-11T13:36:48.064Z,9.10
2022-11-11T13:39:39.391Z,9.32
2022-11-11T13:42:33.422Z,11.45
2022-11-11T13:45:38.563Z,11.00
2022-11-11T13:48:36.127Z,10.63
2022-11-11T13:56:37.812Z,10.95
2022-11-11T13:59:37.139Z,9.25
2022-11-11T14:02:24.900Z,9.85
2022-11-11T14:05:20.791Z,7.68
2022-11-11T14:08:10.483Z,8.02
2022-11-11T14:10:59.707Z,9.52
2022-11-11T14:13:48.854Z,7.38
2022-11-11T14:16:38.347Z,14.52
2022-11-11T14:19:32.102Z,9.45
2022-11-11T14:22:33.956Z,7.40
2022-11-11T14:25:28.339Z,5.00
2022-11-11T14:28:25.010Z,9.50
2022-11-11T14:31:14.581Z,9.63
2022-11-11T14:34:23.835Z,8.23
2022-11-11T14:37:24.940Z,12.38
2022-11-11T14:40:27.546Z,8.13
2022-11-11T14:43:35.793Z,6.57
2022-11-11T14:46:25.881Z,4.38
2022-11-11T14:49:41.419Z,7.07
2022-11-11T14:52:45.412Z,13.05
2022-11-11T14:55:38.438Z,7.18
2022-11-11T14:58:28.812Z,7.05
2022-11-11T15:01:27.121Z,8.00
2022-11-11T15:04:24.467Z,10.00
2022-11-11T15:08:05.225Z,10.20
2022-11-11T15:11:09.947Z,6.32
2022-11-11T15:14:30.892Z,9.30
2022-11-11T15:21:16.999Z,14.63
2022-11-11T15:24:13.959Z,10.32
2022-11-11T15:27:16.001Z,7.90
2022-11-11T15:30:19.410Z,6.78
2022-11-11T15:33:43.911Z,5.57
2022-11-11T15:36:57.084Z,6.00
2022-11-11T15:39:51.574Z,6.93
2022-11-11T15:42:41.341Z,8.32
2022-11-11T15:45:34.830Z,6.00
2022-11-11T15:48:28.498Z,9.70
2022-11-11T15:51:39.506Z,7.82
2022-11-11T15:54:43.646Z,8.77
2022-11-11T15:57:43.089Z,15.70
2022-11-11T16:00:33.442Z,7.20
2022-11-11T16:03:29.965Z,35.83
2022-11-11T16:06:22.983Z,7.90
2022-11-11T16:09:27.137Z,9.30
2022-11-11T16:12:29.655Z,6.15
2022-11-11T16:15:48.106Z,12.00
2022-11-11T16:19:30.348Z,6.57
2022-11-11T16:22:29.090Z,4.55
2022-11-11T16:25:24.068Z,4.45
2022-11-11T16:28:12.822Z,5.32
2022-11-11T16:30:59.289Z,8.82
2022-11-11T16:33:49.954Z,6.90
2022-11-11T16:36:36.802Z,22.73
2022-11-11T16:39:27.835Z,9.02
2022-11-11T16:42:29.862Z,5.15
2022-11-11T16:45:22.654Z,9.80
2022-11-11T16:48:34.334Z,21.75
2022-11-11T16:51:38.815Z,13.82
2022-11-11T16:54:44.382Z,17.20
2022-11-11T17:06:48.663Z,13.13
2022-11-11T17:09:44.416Z,8.70
2022-11-11T17:12:33.140Z,20.40
2022-11-11T17:26:17.976Z,20.30
2022-11-11T17:29:20.357Z,9.10
2022-11-11T17:32:44.446Z,14.05
2022-11-11T17:44:16.056Z,15.13
2022-11-11T17:47:18.767Z,8.60
2022-11-11T17:50:13.098Z,10.93
2022-11-11T17:53:24.739Z,14.75
2022-11-11T17:56:22.233Z,15.88
2022-11-11T17:59:09.572Z,19.98
2022-11-11T18:02:03.027Z,13.30
2022-11-11T18:05:12.913Z,20.30
2022-11-11T18:08:22.884Z,17.60
2022-11-11T18:15:30.689Z,16.88
2022-11-11T18:19:27.178Z,13.27
2022-11-11T18:22:30.218Z,15.57
2022-11-11T18:25:23.471Z,14.98
2022-11-11T18:28:16.666Z,21.23
2022-11-11T18:31:26.820Z,14.73
2022-11-11T18:37:57.340Z,19.38
2022-11-11T18:44:29.965Z,16.50
2022-11-11T18:47:15.506Z,13.23
2022-11-11T18:55:40.197Z,10.40
2022-11-11T18:58:41.334Z,18.90
2022-11-11T19:01:54.471Z,17.77
2022-11-11T19:05:29.843Z,19.15
2022-11-11T19:09:00.097Z,18.92
2022-11-11T19:12:04.803Z,15.35
2022-11-11T19:30:35.778Z,21.10
2022-11-11T19:50:51.162Z,11.82
2022-11-11T19:54:04.286Z,12.65
2022-11-11T19:58:06.801Z,11.63
2022-11-11T20:01:48.203Z,9.95
2022-11-11T20:05:28.484Z,17.40
2022-11-11T20:08:30.613Z,12.68
2022-11-11T20:11:35.570Z,14.55
2022-11-11T20:14:30.796Z,11.00
2022-11-11T20:17:55.382Z,13.00
2022-11-11T20:21:01.757Z,8.35
2022-11-11T20:33:15.010Z,13.00
2022-11-11T20:47:10.537Z,11.10
2022-11-11T21:23:00.343Z,11.77
2022-11-11T21:40:29.777Z,12.50
2022-11-11T21:43:30.548Z,11.52
2022-11-11T21:46:32.043Z,14.20
2022-11-11T21:49:49.016Z,11.57
2022-11-11T21:53:06.662Z,10.02
2022-11-11T21:56:23.196Z,15.75
2022-11-11T21:59:27.793Z,9.60
2022-11-11T22:02:34.816Z,10.57
2022-11-11T22:06:28.069Z,8.05
2022-11-11T22:10:43.951Z,14.25
2022-11-11T22:13:52.209Z,14.10
2022-11-11T22:17:00.682Z,13.30
2022-11-11T22:24:27.326Z,6.68
2022-11-11T22:39:04.539Z,7.97
2022-11-11T23:26:03.480Z,6.97
2022-11-11T23:45:41.353Z,10.02
2022-11-11T23:48:45.661Z,6.88
2022-11-11T23:55:25.594Z,9.23
2022-11-11T23:58:35.219Z,9.45
